Time;durP1;ratioP1;P1;durP2;ratioP2;P2;SDS_P1;SDS_P2;PMS_P1;PMS_P2;Temp;Humidity;BMP_temperature;BMP_pressure;BME280_temperature;BME280_humidity;BME280_pressure;Samples;Min_cycle;Max_cycle;Signal;HPM_P1;HPM_P2
2023/09/02 00:00:35;;;;;;;23.93;22.03;;;16.70;99.90;;;;;;5020682;28;20183;-52
2023/09/02 00:03:01;;;;;;;24.20;22.30;;;16.60;99.90;;;;;;5022533;28;21003;-53
2023/09/02 00:05:27;;;;;;;24.20;22.50;;;16.70;99.90;;;;;;5022596;28;20185;-55
2023/09/02 00:07:52;;;;;;;24.50;22.63;;;16.60;99.90;;;;;;5022447;28;20271;-51
2023/09/02 00:10:18;;;;;;;24.10;22.20;;;16.60;99.90;;;;;;5021818;28;20206;-54
2023/09/02 00:12:44;;;;;;;23.13;21.43;;;16.70;99.90;;;;;;5022612;28;20558;-53
2023/09/02 00:15:09;;;;;;;24.90;23.00;;;16.60;99.90;;;;;;5022246;28;20179;-53
2023/09/02 00:17:35;;;;;;;22.87;21.17;;;16.60;99.90;;;;;;5022609;28;20699;-54
2023/09/02 00:20:05;;;;;;;24.53;22.70;;;16.60;99.90;;;;;;5020925;28;20190;-54
2023/09/02 00:22:32;;;;;;;24.30;22.50;;;16.60;99.90;;;;;;5021915;28;20204;-56
2023/09/02 00:24:58;;;;;;;23.10;21.40;;;16.70;99.90;;;;;;5020911;28;20483;-55
2023/09/02 00:27:24;;;;;;;23.33;21.50;;;16.70;99.90;;;;;;5020019;28;20433;-54
2023/09/02 00:29:49;;;;;;;24.17;22.47;;;16.60;99.90;;;;;;5018090;28;20546;-53
2023/09/02 00:32:15;;;;;;;23.33;21.63;;;16.70;99.90;;;;;;5021345;28;20193;-51
2023/09/02 00:34:40;;;;;;;23.50;21.80;;;16.70;99.90;;;;;;5020386;28;20842;-50
2023/09/02 00:37:06;;;;;;;24.07;22.03;;;16.60;99.90;;;;;;5021410;28;20190;-52
2023/09/02 00:39:32;;;;;;;22.67;21.07;;;16.60;99.90;;;;;;5020287;28;20194;-54
2023/09/02 00:41:59;;;;;;;22.60;21.03;;;16.50;99.90;;;;;;5020946;28;20214;-54
2023/09/02 00:44:25;;;;;;;23.53;21.80;;;16.60;99.90;;;;;;5019027;28;20631;-53
2023/09/02 00:46:51;;;;;;;22.60;20.97;;;16.50;99.90;;;;;;5021162;28;20498;-54
2023/09/02 00:49:17;;;;;;;23.00;21.37;;;16.50;99.90;;;;;;5020788;28;20958;-52
2023/09/02 00:51:43;;;;;;;21.87;20.27;;;16.40;99.90;;;;;;5020526;28;20433;-53
2023/09/02 00:54:09;;;;;;;22.80;21.20;;;16.30;99.90;;;;;;5020590;28;20436;-55
2023/09/02 00:56:37;;;;;;;23.47;21.47;;;16.30;99.90;;;;;;5020926;28;20178;-55
2023/09/02 00:59:04;;;;;;;22.83;21.23;;;16.20;99.90;;;;;;5021147;28;20240;-54
2023/09/02 01:01:33;;;;;;;22.40;20.80;;;16.20;99.90;;;;;;5020232;28;20456;-52
2023/09/02 01:03:59;;;;;;;22.30;20.70;;;16.10;99.90;;;;;;5020456;28;20425;-55
2023/09/02 01:06:25;;;;;;;21.93;20.43;;;16.10;99.90;;;;;;5021439;28;20417;-53
2023/09/02 01:08:51;;;;;;;22.73;20.93;;;16.00;99.90;;;;;;5020873;28;21013;-46
2023/09/02 01:11:17;;;;;;;21.30;19.70;;;16.00;99.90;;;;;;5018467;28;20432;-53
2023/09/02 01:13:43;;;;;;;22.33;20.73;;;15.90;99.90;;;;;;5019577;28;20441;-52
2023/09/02 01:16:08;;;;;;;23.60;21.87;;;15.90;99.90;;;;;;5019962;28;20210;-53
2023/09/02 01:18:36;;;;;;;22.03;20.43;;;15.90;99.90;;;;;;5020065;28;20273;-55
2023/09/02 01:21:36;;;;;;;22.30;20.50;;;15.90;99.90;;;;;;5018768;28;20183;-47
2023/09/02 01:24:24;;;;;;;22.50;20.90;;;15.80;99.90;;;;;;5020036;28;20472;-55
2023/09/02 01:27:02;;;;;;;21.80;20.17;;;15.80;99.90;;;;;;5020426;28;21405;-51
2023/09/02 01:29:31;;;;;;;22.83;21.20;;;15.80;99.90;;;;;;5019426;28;20586;-54
2023/09/02 01:31:58;;;;;;;22.63;21.00;;;15.80;99.90;;;;;;5017949;28;20433;-51
2023/09/02 01:34:28;;;;;;;23.17;21.40;;;15.80;99.90;;;;;;5019786;28;20445;-55
2023/09/02 01:36:54;;;;;;;22.33;20.73;;;15.80;99.90;;;;;;5020070;28;20433;-55
2023/09/02 01:39:22;;;;;;;23.23;21.43;;;15.80;99.90;;;;;;5017882;28;20444;-52
2023/09/02 01:41:51;;;;;;;23.90;22.00;;;15.80;99.90;;;;;;5019664;28;20850;-54
2023/09/02 01:44:17;;;;;;;22.77;21.17;;;15.80;99.90;;;;;;5019270;28;20430;-53
2023/09/02 01:46:43;;;;;;;21.80;20.30;;;15.90;99.90;;;;;;5020383;28;20474;-49
2023/09/02 01:49:09;;;;;;;22.30;20.60;;;15.90;99.90;;;;;;5018608;28;20429;-51
2023/09/02 01:51:35;;;;;;;23.87;22.07;;;15.90;99.90;;;;;;5019227;28;20911;-54
2023/09/02 01:54:01;;;;;;;22.40;20.67;;;16.00;99.90;;;;;;5020793;28;20421;-50
2023/09/02 01:56:28;;;;;;;23.70;21.80;;;16.00;99.90;;;;;;5020545;28;20425;-49
2023/09/02 01:58:54;;;;;;;24.43;22.50;;;16.00;99.90;;;;;;5020105;28;20217;-55
2023/09/02 02:01:19;;;;;;;23.10;21.40;;;16.00;99.90;;;;;;5019772;28;20964;-53
2023/09/02 02:04:13;;;;;;;23.00;21.20;;;16.10;99.90;;;;;;5020169;28;20853;-54
2023/09/02 02:06:42;;;;;;;22.13;20.50;;;16.10;99.90;;;;;;5019697;28;20261;-50
2023/09/02 02:09:12;;;;;;;23.30;21.50;;;16.10;99.90;;;;;;5019648;28;20433;-52
2023/09/02 02:11:38;;;;;;;22.73;20.97;;;16.20;99.90;;;;;;5019439;28;20429;-54
2023/09/02 02:14:06;;;;;;;23.23;21.33;;;16.20;99.90;;;;;;5020368;28;20929;-50
2023/09/02 02:16:32;;;;;;;23.50;21.70;;;16.30;99.90;;;;;;5014190;28;20429;-53
2023/09/02 02:18:59;;;;;;;22.20;20.50;;;16.30;99.90;;;;;;5022318;28;20455;-51
2023/09/02 02:21:28;;;;;;;24.03;22.23;;;16.30;99.90;;;;;;5023705;28;20500;-52
2023/09/02 02:23:54;;;;;;;23.70;21.80;;;16.30;99.90;;;;;;5023497;28;20484;-55
2023/09/02 02:26:20;;;;;;;23.30;21.53;;;16.30;99.90;;;;;;5024670;28;20444;-55
2023/09/02 02:28:46;;;;;;;24.63;22.77;;;16.20;99.90;;;;;;5020649;28;20178;-56
2023/09/02 02:31:12;;;;;;;23.57;21.67;;;16.20;99.90;;;;;;5023635;28;20486;-56
2023/09/02 02:33:38;;;;;;;23.73;21.70;;;16.20;99.90;;;;;;5024000;28;20417;-51
2023/09/02 02:36:04;;;;;;;23.77;21.77;;;16.20;99.90;;;;;;5023771;28;20190;-51
2023/09/02 02:38:30;;;;;;;24.23;22.33;;;16.20;99.90;;;;;;5024365;28;20217;-50
2023/09/02 02:40:55;;;;;;;22.67;20.83;;;16.20;99.90;;;;;;5021784;28;20535;-54
2023/09/02 02:43:26;;;;;;;23.67;21.53;;;16.10;99.90;;;;;;5023271;28;20214;-54
2023/09/02 02:45:55;;;;;;;23.63;21.73;;;16.20;99.90;;;;;;5023863;28;20683;-45
2023/09/02 02:48:24;;;;;;;23.20;21.50;;;16.10;99.90;;;;;;5022525;28;20739;-46
2023/09/02 02:50:49;;;;;;;22.60;20.80;;;16.20;99.90;;;;;;5023213;28;20520;-52
2023/09/02 02:53:15;;;;;;;22.93;21.23;;;16.20;99.90;;;;;;5022989;28;20930;-52
2023/09/02 02:55:43;;;;;;;25.50;23.17;;;16.20;99.90;;;;;;5022073;28;20680;-53
2023/09/02 02:58:11;;;;;;;23.37;21.50;;;16.20;99.90;;;;;;5022886;28;20191;-49
2023/09/02 03:00:39;;;;;;;23.20;21.27;;;16.20;99.90;;;;;;5021955;28;20441;-55
2023/09/02 03:03:04;;;;;;;23.00;21.10;;;16.20;99.90;;;;;;5022489;28;20534;-54
2023/09/02 03:05:41;;;;;;;23.33;21.47;;;16.20;99.90;;;;;;5023757;28;20429;-48
2023/09/02 03:08:07;;;;;;;22.43;20.73;;;16.20;99.90;;;;;;5023721;28;20550;-51
2023/09/02 03:10:37;;;;;;;23.50;21.60;;;16.10;99.90;;;;;;5022333;28;20440;-55
2023/09/02 03:13:03;;;;;;;21.67;20.07;;;16.10;99.90;;;;;;5022299;28;20482;-53
2023/09/02 03:15:29;;;;;;;22.70;20.90;;;16.10;99.90;;;;;;5023404;28;20421;-51
2023/09/02 03:17:54;;;;;;;21.57;19.80;;;16.00;99.90;;;;;;5023241;28;20425;-54
2023/09/02 03:20:20;;;;;;;23.37;21.47;;;15.90;99.90;;;;;;5022635;28;20226;-45
2023/09/02 03:22:46;;;;;;;23.00;21.20;;;15.90;99.90;;;;;;5023401;28;20933;-53
2023/09/02 03:25:12;;;;;;;21.67;19.43;;;15.80;99.90;;;;;;5023237;28;20237;-54
2023/09/02 03:27:41;;;;;;;22.40;20.70;;;15.80;99.90;;;;;;5023154;28;20194;-52
2023/09/02 03:30:07;;;;;;;21.70;20.13;;;15.70;99.90;;;;;;5021828;28;20426;-50
2023/09/02 03:32:34;;;;;;;22.27;20.37;;;15.70;99.90;;;;;;5023163;28;20421;-54
2023/09/02 03:35:00;;;;;;;21.80;20.17;;;15.70;99.90;;;;;;5022856;28;20978;-52
2023/09/02 03:37:26;;;;;;;22.63;20.87;;;15.60;99.90;;;;;;5022835;28;20425;-52
2023/09/02 03:39:53;;;;;;;22.93;21.13;;;15.60;99.90;;;;;;5019967;28;20441;-48
2023/09/02 03:42:19;;;;;;;22.37;20.57;;;15.50;99.90;;;;;;5022286;28;20579;-55
2023/09/02 03:44:45;;;;;;;22.73;20.83;;;15.50;99.90;;;;;;5020362;28;21013;-50
2023/09/02 03:47:10;;;;;;;22.37;20.57;;;15.40;99.90;;;;;;5022896;28;20424;-55
2023/09/02 03:49:36;;;;;;;21.60;19.77;;;15.40;99.90;;;;;;5022821;28;20186;-52
2023/09/02 03:52:02;;;;;;;21.47;19.70;;;15.40;99.90;;;;;;5020264;28;20191;-54
2023/09/02 03:54:27;;;;;;;22.40;20.60;;;15.40;99.90;;;;;;5022644;28;20656;-54
2023/09/02 03:56:53;;;;;;;20.83;19.13;;;15.40;99.90;;;;;;5022788;28;20194;-48
2023/09/02 03:59:19;;;;;;;22.30;20.47;;;15.40;99.90;;;;;;5022012;28;20265;-50
2023/09/02 04:01:45;;;;;;;21.97;20.17;;;15.30;99.90;;;;;;5020792;28;20194;-54
2023/09/02 04:04:11;;;;;;;20.47;18.87;;;15.40;99.90;;;;;;5020949;28;20187;-52
2023/09/02 04:06:38;;;;;;;22.77;20.87;;;15.40;99.90;;;;;;5022487;28;20980;-54
2023/09/02 04:09:05;;;;;;;22.83;20.83;;;15.40;99.90;;;;;;5021372;28;20190;-55
2023/09/02 04:11:31;;;;;;;22.70;21.00;;;15.40;99.90;;;;;;5021927;28;20440;-52
2023/09/02 04:13:57;;;;;;;25.17;22.93;;;15.30;99.90;;;;;;5021694;28;20429;-52
2023/09/02 04:16:22;;;;;;;23.63;21.60;;;15.30;99.90;;;;;;5020431;28;20227;-53
2023/09/02 04:18:48;;;;;;;22.20;20.40;;;15.30;99.90;;;;;;5022167;28;20183;-51
2023/09/02 04:21:13;;;;;;;22.77;20.90;;;15.30;99.90;;;;;;5021596;28;20194;-52
2023/09/02 04:23:41;;;;;;;22.40;20.50;;;15.30;99.90;;;;;;5020706;28;20283;-51
2023/09/02 04:26:07;;;;;;;22.50;20.90;;;15.30;99.90;;;;;;5021953;28;20672;-53
2023/09/02 04:28:32;;;;;;;23.47;21.77;;;15.30;99.90;;;;;;5020758;28;20930;-55
2023/09/02 04:30:59;;;;;;;23.47;21.47;;;15.40;99.90;;;;;;5021749;28;20436;-47
2023/09/02 04:33:25;;;;;;;22.67;20.87;;;15.40;99.90;;;;;;5020933;28;20191;-50
2023/09/02 04:35:51;;;;;;;22.30;20.60;;;15.40;99.90;;;;;;5021961;28;20413;-53
2023/09/02 04:38:17;;;;;;;22.70;20.80;;;15.50;99.90;;;;;;5021644;28;20440;-54
2023/09/02 04:40:43;;;;;;;23.33;21.43;;;15.50;99.90;;;;;;5020258;28;20429;-48
2023/09/02 04:43:11;;;;;;;23.50;21.50;;;15.60;99.90;;;;;;5021565;28;20245;-53
2023/09/02 04:45:39;;;;;;;23.37;21.50;;;15.60;99.90;;;;;;5020929;28;20467;-48
2023/09/02 04:48:05;;;;;;;22.37;20.57;;;15.70;99.90;;;;;;5021340;28;20538;-53
2023/09/02 04:50:32;;;;;;;23.30;21.30;;;15.70;99.90;;;;;;5016488;28;22283;-54
2023/09/02 04:52:58;;;;;;;22.50;20.60;;;15.80;99.90;;;;;;5014131;28;20444;-53
2023/09/02 04:55:25;;;;;;;23.73;21.83;;;15.90;99.90;;;;;;5020651;28;20486;-51
2023/09/02 04:57:51;;;;;;;23.03;21.13;;;15.80;99.90;;;;;;5021434;28;20512;-49
2023/09/02 05:00:17;;;;;;;21.20;19.60;;;15.80;99.90;;;;;;5020201;28;20578;-54
2023/09/02 05:02:44;;;;;;;23.00;21.13;;;15.80;99.90;;;;;;5021325;28;20821;-52
2023/09/02 05:05:10;;;;;;;22.10;20.43;;;15.80;99.90;;;;;;5019946;28;20930;-53
2023/09/02 05:07:36;;;;;;;23.43;21.53;;;15.80;99.90;;;;;;5021024;28;20436;-50
2023/09/02 05:10:01;;;;;;;24.07;21.97;;;15.70;99.90;;;;;;5020171;28;20430;-54
2023/09/02 05:12:27;;;;;;;22.93;20.93;;;15.80;99.90;;;;;;5020680;28;20198;-53
2023/09/02 05:14:53;;;;;;;22.37;20.47;;;15.90;99.90;;;;;;5018736;28;20245;-53
2023/09/02 05:17:19;;;;;;;22.20;20.50;;;15.90;99.90;;;;;;5019101;28;20555;-46
2023/09/02 05:19:44;;;;;;;25.10;22.40;;;16.00;99.90;;;;;;5019499;28;20206;-51
2023/09/02 05:22:10;;;;;;;22.33;20.50;;;16.00;99.90;;;;;;5019748;28;20222;-51
2023/09/02 05:24:35;;;;;;;22.43;20.57;;;16.00;99.90;;;;;;5020824;28;20309;-54
2023/09/02 05:27:01;;;;;;;20.80;19.30;;;16.10;99.90;;;;;;5020799;28;20209;-54
2023/09/02 05:29:27;;;;;;;21.87;20.10;;;16.10;99.90;;;;;;5021133;28;20190;-50
2023/09/02 05:31:53;;;;;;;23.80;21.80;;;16.10;99.90;;;;;;5018929;28;20429;-52
2023/09/02 05:34:18;;;;;;;23.77;21.57;;;16.20;99.90;;;;;;5020638;28;20200;-54
2023/09/02 05:36:44;;;;;;;21.47;19.80;;;16.20;99.90;;;;;;5020214;28;20187;-48
2023/09/02 05:39:10;;;;;;;21.90;20.10;;;16.30;99.90;;;;;;5018907;28;20580;-51
2023/09/02 05:41:36;;;;;;;23.33;21.20;;;16.30;99.90;;;;;;5019807;28;20424;-52
2023/09/02 05:44:01;;;;;;;22.50;20.73;;;16.40;99.90;;;;;;5014471;28;20830;-50
2023/09/02 05:46:27;;;;;;;23.87;21.13;;;16.50;99.90;;;;;;5019939;28;20268;-52
2023/09/02 05:48:53;;;;;;;22.07;20.37;;;16.50;99.90;;;;;;5019491;28;20676;-50
2023/09/02 05:51:18;;;;;;;23.00;21.13;;;16.60;99.90;;;;;;5017584;28;20578;-52
2023/09/02 05:53:46;;;;;;;24.07;22.00;;;16.70;99.90;;;;;;5019600;28;20209;-53
2023/09/02 05:56:12;;;;;;;21.87;20.07;;;16.80;99.90;;;;;;5019771;28;20552;-52
2023/09/02 05:58:37;;;;;;;23.63;21.73;;;16.90;99.90;;;;;;5019733;28;20413;-55
2023/09/02 06:01:04;;;;;;;22.00;19.97;;;17.00;99.90;;;;;;5020569;28;20448;-55
2023/09/02 06:03:30;;;;;;;22.80;21.00;;;17.10;99.90;;;;;;5012551;28;20237;-53
2023/09/02 06:05:57;;;;;;;22.27;20.37;;;17.20;99.90;;;;;;5019867;28;20951;-46
2023/09/02 06:08:22;;;;;;;21.80;20.00;;;17.20;99.90;;;;;;5020638;28;20191;-53
2023/09/02 06:11:00;;;;;;;21.30;19.50;;;17.30;99.90;;;;;;5015223;28;20469;-53
2023/09/02 06:13:26;;;;;;;21.30;19.47;;;17.40;99.90;;;;;;5018973;28;20186;-50
2023/09/02 06:15:52;;;;;;;20.03;18.50;;;17.40;99.90;;;;;;5018049;28;20441;-54
2023/09/02 06:18:17;;;;;;;20.03;18.43;;;17.40;99.90;;;;;;5018667;28;20191;-52
2023/09/02 06:20:43;;;;;;;20.63;18.93;;;17.40;99.90;;;;;;5016624;28;20351;-52
2023/09/02 06:23:08;;;;;;;20.87;19.17;;;17.50;99.90;;;;;;5016896;28;20212;-53
2023/09/02 06:25:34;;;;;;;19.50;18.10;;;17.50;99.90;;;;;;5018622;28;20171;-52
2023/09/02 06:28:00;;;;;;;19.27;17.77;;;17.60;99.90;;;;;;5019689;28;20175;-53
2023/09/02 06:30:25;;;;;;;20.00;18.50;;;17.70;99.90;;;;;;5018326;28;20217;-53
2023/09/02 06:35:21;;;;;;;20.20;18.70;;;17.80;99.90;;;;;;5038437;28;20970;-52
2023/09/02 06:37:48;;;;;;;18.23;16.73;;;17.90;99.90;;;;;;5046870;28;20486;-55
2023/09/02 06:40:15;;;;;;;19.07;17.67;;;17.80;99.90;;;;;;5043647;28;20631;-54
2023/09/02 06:42:40;;;;;;;17.17;15.90;;;17.80;99.90;;;;;;5046817;28;20460;-54
2023/09/02 06:45:07;;;;;;;17.33;15.93;;;17.80;99.90;;;;;;5043344;28;20433;-42
2023/09/02 06:47:32;;;;;;;16.97;15.70;;;17.80;99.90;;;;;;5041555;28;20282;-54
2023/09/02 06:49:58;;;;;;;18.00;16.30;;;17.80;99.90;;;;;;5037280;28;20531;-52
2023/09/02 06:52:24;;;;;;;18.30;17.00;;;17.80;99.90;;;;;;5043850;28;20189;-51
2023/09/02 06:54:50;;;;;;;17.07;15.87;;;17.80;99.90;;;;;;5045838;28;20186;-56
2023/09/02 06:57:18;;;;;;;17.53;16.27;;;17.80;99.90;;;;;;5040115;28;20194;-54
2023/09/02 06:59:43;;;;;;;18.10;16.80;;;17.80;99.90;;;;;;5043757;28;20443;-55
2023/09/02 07:02:09;;;;;;;18.70;17.20;;;17.80;99.90;;;;;;5045916;28;20464;-57
2023/09/02 07:04:35;;;;;;;18.70;17.30;;;17.80;99.90;;;;;;5046162;28;20200;-46
2023/09/02 07:07:00;;;;;;;17.83;16.40;;;17.80;99.90;;;;;;5047645;28;20190;-56
2023/09/02 07:09:26;;;;;;;16.43;15.23;;;17.90;99.90;;;;;;5050642;28;20348;-54
2023/09/02 07:11:52;;;;;;;17.50;16.30;;;18.00;99.90;;;;;;5051712;28;20568;-58
2023/09/02 07:14:18;;;;;;;18.80;17.40;;;18.20;99.90;;;;;;5050558;28;20235;-54
2023/09/02 07:16:44;;;;;;;18.70;17.50;;;18.30;99.90;;;;;;5050569;28;20424;-50
2023/09/02 07:19:09;;;;;;;19.10;17.70;;;18.40;99.90;;;;;;5050494;28;20964;-55
2023/09/02 07:21:35;;;;;;;18.90;17.50;;;18.50;99.90;;;;;;5050108;28;20301;-55
2023/09/02 07:24:00;;;;;;;17.43;16.33;;;18.70;99.90;;;;;;5050771;28;20666;-52
2023/09/02 07:26:28;;;;;;;19.17;17.77;;;18.80;99.90;;;;;;5051679;28;20194;-55
2023/09/02 07:28:54;;;;;;;17.90;16.60;;;19.00;99.90;;;;;;5051772;28;20265;-54
2023/09/02 07:31:20;;;;;;;18.10;16.90;;;19.20;99.90;;;;;;5050388;28;20518;-54
2023/09/02 07:33:45;;;;;;;18.73;17.43;;;19.30;99.90;;;;;;5051210;28;20283;-51
2023/09/02 07:36:13;;;;;;;19.60;18.20;;;19.30;99.90;;;;;;5051465;28;20970;-52
2023/09/02 07:38:40;;;;;;;20.33;18.83;;;19.30;99.90;;;;;;5051201;28;20184;-52
2023/09/02 07:41:06;;;;;;;20.50;19.10;;;19.30;99.90;;;;;;5051569;28;20454;-55
2023/09/02 07:43:31;;;;;;;21.10;19.60;;;19.40;99.90;;;;;;5051292;28;20464;-54
2023/09/02 07:45:57;;;;;;;20.37;18.70;;;19.40;99.90;;;;;;5051430;28;20567;-56
2023/09/02 07:48:23;;;;;;;20.53;19.00;;;19.50;99.90;;;;;;5051647;28;20889;-52
2023/09/02 07:50:49;;;;;;;20.27;18.77;;;19.50;99.90;;;;;;5050037;28;20440;-54
2023/09/02 07:53:14;;;;;;;21.30;19.80;;;19.50;99.90;;;;;;5051010;28;20643;-56
2023/09/02 07:55:40;;;;;;;21.27;19.67;;;19.60;99.90;;;;;;5050721;28;20196;-56
2023/09/02 07:58:06;;;;;;;20.77;19.37;;;19.60;99.90;;;;;;5051049;28;20185;-55
2023/09/02 08:00:35;;;;;;;21.43;19.93;;;19.70;99.90;;;;;;5051010;28;20193;-55
2023/09/02 08:03:01;;;;;;;21.90;20.20;;;19.70;99.90;;;;;;5050880;28;20548;-55
2023/09/02 08:05:26;;;;;;;20.30;18.90;;;19.90;99.90;;;;;;5050757;28;20423;-55
2023/09/02 08:07:53;;;;;;;23.13;21.53;;;20.10;99.90;;;;;;5051070;28;20189;-52
2023/09/02 08:10:19;;;;;;;21.67;20.13;;;20.10;99.90;;;;;;5050011;28;20236;-55
2023/09/02 08:12:45;;;;;;;21.60;20.20;;;20.10;99.90;;;;;;5050937;28;20425;-57
2023/09/02 08:15:11;;;;;;;22.07;20.53;;;20.10;99.90;;;;;;5050180;28;20154;-47
2023/09/02 08:17:39;;;;;;;20.67;19.27;;;20.10;99.90;;;;;;5050818;28;20420;-55
2023/09/02 08:20:06;;;;;;;21.37;19.80;;;20.10;99.90;;;;;;5051155;28;20416;-52
2023/09/02 08:22:31;;;;;;;21.30;19.83;;;20.10;99.90;;;;;;5050894;28;20478;-54
2023/09/02 08:24:57;;;;;;;20.13;18.73;;;20.10;99.90;;;;;;5050988;28;20412;-56
2023/09/02 08:27:25;;;;;;;19.90;18.50;;;20.10;99.90;;;;;;5050748;28;20174;-55
2023/09/02 08:29:51;;;;;;;20.80;19.30;;;20.20;99.90;;;;;;5050853;28;20186;-55
2023/09/02 08:32:17;;;;;;;21.70;20.10;;;20.20;99.90;;;;;;5050748;28;20487;-55
2023/09/02 08:34:42;;;;;;;21.10;19.67;;;20.20;99.90;;;;;;5050193;28;20511;-53
2023/09/02 08:37:08;;;;;;;20.80;19.30;;;20.30;99.90;;;;;;5050616;28;20162;-52
2023/09/02 08:39:34;;;;;;;20.90;19.40;;;20.40;99.90;;;;;;5050409;28;20260;-53
2023/09/02 08:41:59;;;;;;;21.03;19.43;;;20.30;99.90;;;;;;5050594;28;20733;-54
2023/09/02 08:44:27;;;;;;;21.33;19.93;;;20.50;99.90;;;;;;5050543;28;20178;-54
2023/09/02 08:46:54;;;;;;;21.03;19.63;;;20.50;99.90;;;;;;5050183;28;20312;-54
2023/09/02 08:49:20;;;;;;;21.33;19.93;;;20.50;99.90;;;;;;5050344;28;20756;-54
2023/09/02 08:51:46;;;;;;;22.10;20.60;;;20.70;99.90;;;;;;5048325;28;20436;-52
2023/09/02 08:54:13;;;;;;;21.63;20.03;;;20.80;99.90;;;;;;5042226;28;20830;-56
2023/09/02 08:56:41;;;;;;;22.23;20.70;;;20.80;99.90;;;;;;5045849;28;20433;-53
2023/09/02 08:59:12;;;;;;;21.70;20.20;;;21.00;99.90;;;;;;5050120;28;20432;-54
2023/09/02 09:01:42;;;;;;;21.23;19.80;;;21.10;99.90;;;;;;5049950;28;20439;-52
2023/09/02 09:04:08;;;;;;;21.20;19.80;;;21.20;99.90;;;;;;5049127;28;20801;-53
2023/09/02 09:06:36;;;;;;;20.43;19.13;;;21.40;99.90;;;;;;5049771;28;20428;-53
2023/09/02 09:09:03;;;;;;;19.37;17.97;;;21.50;99.90;;;;;;5049909;28;20439;-54
2023/09/02 09:11:32;;;;;;;19.87;18.57;;;21.70;99.90;;;;;;5049820;28;20516;-52
2023/09/02 09:14:02;;;;;;;19.57;18.27;;;21.90;99.90;;;;;;5049787;28;20510;-53
2023/09/02 09:16:33;;;;;;;19.97;18.60;;;22.00;99.90;;;;;;5049996;28;20420;-55
2023/09/02 09:18:59;;;;;;;17.27;16.13;;;22.00;99.90;;;;;;5049829;28;20558;-55
2023/09/02 09:21:24;;;;;;;18.63;17.53;;;22.00;99.90;;;;;;5048872;28;20432;-44
2023/09/02 09:23:50;;;;;;;19.43;18.23;;;22.10;99.90;;;;;;5049857;28;20440;-49
2023/09/02 09:26:18;;;;;;;19.80;18.60;;;22.30;99.90;;;;;;5049527;28;20182;-56
2023/09/02 09:28:59;;;;;;;17.87;16.77;;;22.40;99.90;;;;;;5049767;28;20702;-55
2023/09/02 09:31:26;;;;;;;18.77;17.67;;;22.70;99.90;;;;;;5049659;28;20452;-49
2023/09/02 09:33:58;;;;;;;17.43;16.33;;;22.90;99.90;;;;;;5047851;28;20468;-54
2023/09/02 09:36:25;;;;;;;19.00;17.80;;;23.00;99.90;;;;;;5049571;28;20492;-51
2023/09/02 09:38:56;;;;;;;18.77;17.67;;;23.10;99.90;;;;;;5049045;28;20420;-56
2023/09/02 09:41:23;;;;;;;18.50;17.30;;;23.10;99.90;;;;;;5049444;28;20478;-55
2023/09/02 09:44:11;;;;;;;18.80;17.70;;;23.20;99.90;;;;;;5049510;28;20502;-53
2023/09/02 09:46:43;;;;;;;17.90;16.90;;;23.20;99.90;;;;;;5049601;28;20418;-54
2023/09/02 09:49:21;;;;;;;17.23;16.23;;;23.20;99.90;;;;;;5048260;28;20451;-55
2023/09/02 09:51:46;;;;;;;16.80;15.80;;;23.10;99.90;;;;;;5047514;28;20424;-56
2023/09/02 09:54:12;;;;;;;17.00;16.00;;;23.10;99.90;;;;;;5044604;28;20426;-56
2023/09/02 09:56:44;;;;;;;16.80;15.80;;;23.00;99.90;;;;;;5048857;28;20196;-49
2023/09/02 09:59:10;;;;;;;16.70;15.80;;;23.10;99.90;;;;;;5049190;28;20264;-54
2023/09/02 10:01:37;;;;;;;16.70;15.80;;;23.30;99.90;;;;;;5048875;28;20997;-53
2023/09/02 10:04:09;;;;;;;16.53;15.63;;;23.40;99.90;;;;;;5035566;28;20216;-54
2023/09/02 10:06:38;;;;;;;17.07;16.17;;;23.70;99.90;;;;;;5048913;28;20894;-56
2023/09/02 10:09:04;;;;;;;17.17;16.27;;;23.70;99.90;;;;;;5049076;28;20502;-58
2023/09/02 10:11:29;;;;;;;17.53;16.53;;;23.60;99.90;;;;;;5048647;28;20878;-54
2023/09/02 10:13:57;;;;;;;18.50;17.27;;;23.60;99.90;;;;;;5049096;28;20197;-56
2023/09/02 10:16:24;;;;;;;17.57;16.53;;;23.50;99.90;;;;;;5048877;28;20190;-52
2023/09/02 10:18:51;;;;;;;17.50;16.27;;;23.30;99.90;;;;;;5048766;28;20436;-55
2023/09/02 10:21:20;;;;;;;16.60;15.60;;;23.20;99.90;;;;;;5049017;28;20431;-54
2023/09/02 10:23:54;;;;;;;14.90;14.10;;;23.20;99.90;;;;;;5048604;28;20463;-56
2023/09/02 10:26:31;;;;;;;14.87;14.17;;;23.10;99.90;;;;;;5047447;28;20479;-54
2023/09/02 10:29:02;;;;;;;15.13;14.33;;;23.10;99.90;;;;;;5048116;28;20543;-56
2023/09/02 10:31:42;;;;;;;15.13;14.33;;;23.20;99.90;;;;;;5048929;28;20796;-55
2023/09/02 10:34:17;;;;;;;19.10;17.40;;;23.40;99.90;;;;;;5036006;28;20484;-52
2023/09/02 10:36:47;;;;;;;15.27;14.47;;;23.50;99.90;;;;;;5048709;28;20451;-56
2023/09/02 10:39:50;;;;;;;15.30;14.60;;;23.70;99.90;;;;;;5050677;28;20500;-57
2023/09/02 10:42:19;;;;;;;15.10;14.40;;;23.90;99.90;;;;;;5009582;28;20514;-55
2023/09/02 10:44:46;;;;;;;14.30;13.60;;;24.20;99.90;;;;;;5050920;28;20460;-57
2023/09/02 10:47:12;;;;;;;14.20;13.50;;;24.40;99.90;;;;;;5051058;28;20839;-55
2023/09/02 10:49:38;;;;;;;13.70;13.00;;;24.60;99.90;;;;;;5051134;28;20443;-56
2023/09/02 10:52:04;;;;;;;14.10;13.40;;;24.60;99.90;;;;;;5051410;28;20224;-47
2023/09/02 10:55:05;;;;;;;14.87;14.07;;;24.70;99.90;;;;;;5052358;28;20507;-55
2023/09/02 10:57:42;;;;;;;14.07;13.37;;;24.60;97.20;;;;;;5048550;28;20447;-55
2023/09/02 11:00:28;;;;;;;14.00;13.30;;;24.70;99.80;;;;;;5047500;28;20478;-57
2023/09/02 11:02:56;;;;;;;14.17;13.37;;;24.90;96.20;;;;;;5050962;28;20889;-56
2023/09/02 11:05:23;;;;;;;15.20;14.40;;;24.70;99.50;;;;;;5049862;28;20516;-55
2023/09/02 11:07:49;;;;;;;15.30;14.50;;;24.90;99.50;;;;;;5050302;28;20539;-55
2023/09/02 11:10:15;;;;;;;15.40;14.60;;;24.80;99.40;;;;;;5051427;28;20511;-57
2023/09/02 11:12:59;;;;;;;15.07;14.37;;;24.70;99.90;;;;;;5050380;28;20198;-58
2023/09/02 11:15:25;;;;;;;14.27;13.57;;;24.70;99.90;;;;;;5051519;28;20447;-57
2023/09/02 11:17:51;;;;;;;14.03;13.33;;;24.60;99.90;;;;;;5052356;28;20783;-57
2023/09/02 11:20:24;;;;;;;15.20;14.50;;;24.60;99.90;;;;;;5051652;28;20459;-53
2023/09/02 11:23:01;;;;;;;16.70;15.80;;;24.50;99.90;;;;;;5050738;28;20511;-54
2023/09/02 11:25:42;;;;;;;15.23;14.43;;;24.40;99.90;;;;;;5051266;28;20458;-56
2023/09/02 11:28:17;;;;;;;15.20;14.30;;;24.20;99.90;;;;;;5051074;28;20560;-56
2023/09/02 11:31:02;;;;;;;15.77;14.97;;;24.10;99.90;;;;;;5050971;28;20444;-58
2023/09/02 11:33:28;;;;;;;15.50;14.50;;;24.00;99.90;;;;;;5049887;28;20478;-56
2023/09/02 11:36:05;;;;;;;14.33;13.63;;;24.20;99.90;;;;;;5051701;28;20456;-58
2023/09/02 11:38:32;;;;;;;15.67;14.87;;;24.70;99.90;;;;;;5051097;28;20198;-58
2023/09/02 11:40:58;;;;;;;14.57;13.87;;;25.10;99.90;;;;;;5050006;28;20432;-56
2023/09/02 11:43:29;;;;;;;13.67;13.00;;;26.00;99.90;;;;;;5049818;28;21372;-59
2023/09/02 11:45:54;;;;;;;14.90;14.20;;;26.70;95.90;;;;;;5050678;28;20186;-57
2023/09/02 11:48:24;;;;;;;14.53;13.83;;;27.00;93.60;;;;;;5050737;28;20526;-57
2023/09/02 11:50:49;;;;;;;15.03;14.33;;;26.70;93.30;;;;;;5050117;28;20166;-53
2023/09/02 11:53:15;;;;;;;14.50;13.80;;;26.50;94.40;;;;;;5043118;28;20927;-56
2023/09/02 11:55:41;;;;;;;14.53;13.83;;;26.30;94.40;;;;;;5038429;28;20181;-54
2023/09/02 11:58:08;;;;;;;15.33;14.53;;;26.20;93.10;;;;;;5048822;28;20292;-55
2023/09/02 12:00:41;;;;;;;15.10;14.40;;;26.00;93.30;;;;;;5049549;28;20352;-52
2023/09/02 12:03:07;;;;;;;14.60;13.90;;;25.90;93.40;;;;;;5048915;28;20921;-58
2023/09/02 12:05:37;;;;;;;15.00;14.10;;;26.20;93.90;;;;;;5049490;28;20436;-57
2023/09/02 12:08:04;;;;;;;15.30;14.27;;;26.50;91.50;;;;;;5050918;28;20442;-57
2023/09/02 12:10:30;;;;;;;15.20;14.50;;;26.70;89.90;;;;;;5049559;28;20435;-58
2023/09/02 12:12:56;;;;;;;14.73;14.00;;;26.70;87.90;;;;;;5050814;28;20432;-57
2023/09/02 12:15:22;;;;;;;15.40;14.70;;;26.70;90.50;;;;;;5050699;28;20280;-56
2023/09/02 12:17:48;;;;;;;13.90;13.20;;;26.50;89.20;;;;;;5050851;28;20515;-46
2023/09/02 12:20:15;;;;;;;14.70;13.83;;;26.40;90.60;;;;;;5049951;28;20235;-50
2023/09/02 12:22:44;;;;;;;14.60;13.90;;;26.50;89.40;;;;;;5050613;28;20247;-56
2023/09/02 12:25:15;;;;;;;15.07;14.37;;;26.70;89.60;;;;;;5050650;28;21058;-57
2023/09/02 12:27:41;;;;;;;14.93;14.23;;;26.40;83.50;;;;;;5050488;28;20424;-57
2023/09/02 12:30:07;;;;;;;14.90;14.10;;;26.50;89.40;;;;;;5050465;28;20439;-56
2023/09/02 12:32:32;;;;;;;14.40;13.70;;;26.30;88.00;;;;;;5050718;28;21013;-58